createdAt,value
2023-05-25T00:01:00.601Z,13.34
2023-05-25T00:03:31.853Z,13.22
2023-05-25T00:06:01.851Z,13.33
2023-05-25T00:08:30.147Z,13.40
2023-05-25T00:10:57.586Z,13.53
2023-05-25T00:13:25.232Z,13.47
2023-05-25T00:15:53.035Z,13.38
2023-05-25T00:18:20.454Z,13.38
2023-05-25T00:20:47.986Z,13.25
2023-05-25T00:23:15.713Z,13.29
2023-05-25T00:25:43.307Z,13.31
2023-05-25T00:28:12.222Z,13.32
2023-05-25T00:30:40.151Z,13.14
2023-05-25T00:33:07.689Z,13.03
2023-05-25T00:35:35.085Z,13.09
2023-05-25T00:38:02.874Z,13.01
2023-05-25T00:40:30.301Z,13.06
2023-05-25T00:42:59.561Z,12.87
2023-05-25T00:45:27.291Z,12.93
2023-05-25T00:47:54.747Z,12.96
2023-05-25T00:50:42.011Z,12.89
2023-05-25T00:53:11.760Z,12.63
2023-05-25T00:56:11.944Z,12.66
2023-05-25T00:58:43.937Z,12.83
2023-05-25T01:01:13.747Z,12.87
2023-05-25T01:03:45.922Z,12.74
2023-05-25T01:06:17.773Z,12.57
2023-05-25T01:09:00.895Z,12.39
2023-05-25T01:11:33.492Z,12.44
2023-05-25T01:14:02.027Z,12.39
2023-05-25T01:16:30.278Z,12.12
2023-05-25T01:18:57.982Z,12.07
2023-05-25T01:21:27.292Z,12.19
2023-05-25T01:24:22.556Z,12.02
2023-05-25T01:26:58.281Z,11.88
2023-05-25T01:29:28.418Z,12.11
2023-05-25T01:31:58.669Z,12.18
2023-05-25T01:34:27.110Z,12.19
2023-05-25T01:36:54.637Z,12.05
2023-05-25T01:39:24.084Z,11.71
2023-05-25T01:41:51.356Z,11.88
2023-05-25T01:44:19.322Z,11.85
2023-05-25T01:46:53.933Z,11.84
2023-05-25T01:49:30.526Z,11.72
2023-05-25T01:52:13.122Z,11.70
2023-05-25T01:55:02.740Z,11.76
2023-05-25T01:57:36.391Z,11.71
2023-05-25T02:00:05.094Z,11.67
2023-05-25T02:02:45.846Z,11.74
2023-05-25T02:05:14.129Z,11.72
2023-05-25T02:07:41.659Z,11.55
2023-05-25T02:10:09.480Z,11.41
2023-05-25T02:12:37.347Z,11.39
2023-05-25T02:15:05.562Z,11.31
2023-05-25T02:17:33.052Z,11.23
2023-05-25T02:20:01.051Z,11.38
2023-05-25T02:22:29.178Z,11.48
2023-05-25T02:24:56.512Z,11.53
2023-05-25T02:27:24.221Z,11.53
2023-05-25T02:29:53.316Z,11.56
2023-05-25T02:32:21.539Z,11.54
2023-05-25T02:34:49.349Z,11.56
2023-05-25T02:37:17.815Z,11.52
2023-05-25T02:39:45.164Z,11.58
2023-05-25T02:42:13.089Z,11.64
2023-05-25T02:44:40.638Z,11.31
2023-05-25T02:47:08.464Z,11.36
2023-05-25T02:49:36.957Z,11.39
2023-05-25T02:52:05.271Z,11.16
2023-05-25T02:54:32.684Z,10.99
2023-05-25T02:57:00.403Z,11.23
2023-05-25T02:59:27.837Z,11.02
2023-05-25T03:01:55.151Z,11.20
2023-05-25T03:04:22.818Z,11.26
2023-05-25T03:06:50.138Z,11.28
2023-05-25T03:09:18.214Z,11.21
2023-05-25T03:11:46.154Z,10.80
2023-05-25T03:14:13.774Z,10.99
2023-05-25T03:16:41.873Z,10.93
2023-05-25T03:19:10.855Z,11.01
2023-05-25T03:21:38.746Z,11.22
2023-05-25T03:24:07.069Z,11.17
2023-05-25T03:26:34.957Z,11.23
2023-05-25T03:29:03.098Z,11.14
2023-05-25T03:31:30.628Z,11.29
2023-05-25T03:33:58.430Z,11.20
2023-05-25T03:36:28.590Z,11.17
2023-05-25T03:38:55.996Z,11.22
2023-05-25T03:41:23.990Z,11.04
2023-05-25T03:43:52.433Z,11.19
2023-05-25T03:46:20.351Z,11.26
2023-05-25T03:48:48.207Z,11.30
2023-05-25T03:51:16.608Z,11.29
2023-05-25T03:53:45.620Z,11.03
2023-05-25T03:56:13.312Z,11.23
2023-05-25T03:58:40.930Z,10.92
2023-05-25T04:01:09.875Z,11.09
2023-05-25T04:03:37.864Z,10.88
2023-05-25T04:06:05.421Z,11.03
2023-05-25T04:08:34.188Z,11.01
2023-05-25T04:11:02.302Z,11.00
2023-05-25T04:13:29.673Z,10.56
2023-05-25T04:15:58.204Z,10.68
2023-05-25T04:18:26.927Z,11.00
2023-05-25T04:20:55.674Z,11.08
2023-05-25T04:23:23.757Z,11.22
2023-05-25T04:25:52.304Z,11.27
2023-05-25T04:28:23.192Z,11.31
2023-05-25T04:30:51.439Z,11.46
2023-05-25T04:33:39.007Z,11.56
2023-05-25T04:36:30.078Z,12.07
2023-05-25T04:39:08.594Z,12.17
2023-05-25T04:41:38.087Z,11.98
2023-05-25T04:44:10.442Z,12.05
2023-05-25T04:46:45.276Z,12.17
2023-05-25T04:49:13.930Z,12.18
2023-05-25T04:51:41.561Z,12.25
2023-05-25T04:54:13.165Z,12.31
2023-05-25T04:56:47.359Z,12.38
2023-05-25T04:59:15.217Z,12.64
2023-05-25T05:01:44.947Z,12.75
2023-05-25T05:04:13.123Z,12.99
2023-05-25T05:06:41.382Z,13.16
2023-05-25T05:09:49.149Z,13.37
2023-05-25T05:12:12.174Z,13.57
2023-05-25T05:14:43.390Z,13.51
2023-05-25T05:17:11.256Z,13.65
2023-05-25T05:19:38.925Z,13.81
2023-05-25T05:22:10.039Z,13.98
2023-05-25T05:24:39.569Z,14.17
2023-05-25T05:27:15.763Z,13.86
2023-05-25T05:30:12.460Z,13.92
2023-05-25T05:33:03.867Z,13.81
2023-05-25T05:35:32.159Z,14.13
2023-05-25T05:38:03.802Z,14.35
2023-05-25T05:40:33.581Z,14.48
2023-05-25T05:43:02.658Z,14.66
2023-05-25T05:46:10.159Z,14.91
2023-05-25T05:48:54.608Z,14.66
2023-05-25T05:51:27.704Z,14.76
2023-05-25T05:53:56.487Z,15.08
2023-05-25T05:56:25.153Z,15.21
2023-05-25T05:58:54.780Z,15.56
2023-05-25T06:01:26.500Z,15.95
2023-05-25T06:03:59.576Z,15.75
2023-05-25T06:06:29.172Z,16.17
2023-05-25T06:09:03.869Z,16.40
2023-05-25T06:11:40.376Z,16.57
2023-05-25T06:14:09.002Z,16.72
2023-05-25T06:16:38.783Z,16.55
2023-05-25T06:19:06.366Z,17.14
2023-05-25T06:21:43.179Z,17.23
2023-05-25T06:24:13.757Z,17.21
2023-05-25T06:26:43.107Z,17.45
2023-05-25T06:29:10.659Z,17.49
2023-05-25T06:31:38.467Z,17.40
2023-05-25T06:34:06.649Z,17.53
2023-05-25T06:36:34.067Z,17.70
2023-05-25T06:39:01.760Z,17.74
2023-05-25T06:41:30.064Z,18.15
2023-05-25T06:43:57.555Z,18.55
2023-05-25T06:46:25.221Z,18.92
2023-05-25T06:48:53.713Z,18.99
2023-05-25T06:51:21.739Z,19.08
2023-05-25T06:53:49.330Z,18.95
2023-05-25T06:56:17.025Z,18.77
2023-05-25T06:58:49.562Z,18.78
2023-05-25T07:01:18.120Z,18.77
2023-05-25T07:03:45.913Z,18.61
2023-05-25T07:06:17.338Z,18.33
2023-05-25T07:08:49.377Z,18.39
2023-05-25T07:11:26.198Z,18.43
2023-05-25T07:13:56.895Z,18.44
2023-05-25T07:16:25.793Z,18.60
2023-05-25T07:19:15.612Z,18.93
2023-05-25T07:21:49.176Z,19.42
2023-05-25T07:24:23.583Z,19.13
2023-05-25T07:26:53.619Z,19.53
2023-05-25T07:29:27.099Z,19.77
2023-05-25T07:32:05.150Z,20.15
2023-05-25T07:34:38.873Z,20.00
2023-05-25T07:37:14.699Z,20.29
2023-05-25T07:39:44.197Z,20.54
2023-05-25T07:42:13.664Z,20.38
2023-05-25T07:44:43.007Z,20.65
2023-05-25T07:47:15.771Z,20.71
2023-05-25T07:49:43.464Z,20.93
2023-05-25T07:52:21.825Z,21.06
2023-05-25T07:54:55.345Z,21.42
2023-05-25T07:57:24.527Z,21.35
2023-05-25T08:00:02.916Z,21.06
2023-05-25T08:02:42.708Z,20.72
2023-05-25T08:05:11.021Z,20.54
2023-05-25T08:07:42.941Z,20.18
2023-05-25T08:10:11.964Z,20.03
2023-05-25T08:12:48.852Z,19.97
2023-05-25T08:15:22.756Z,19.80
2023-05-25T08:18:04.909Z,20.01
2023-05-25T08:20:43.208Z,19.65
2023-05-25T08:23:10.913Z,19.59
2023-05-25T08:25:38.601Z,19.40
2023-05-25T08:28:54.177Z,19.30
2023-05-25T08:31:15.069Z,18.95
2023-05-25T08:33:45.750Z,18.77
2023-05-25T08:36:16.528Z,18.83
2023-05-25T08:38:44.517Z,18.44
2023-05-25T08:41:13.653Z,18.14
2023-05-25T08:43:42.377Z,18.30
2023-05-25T08:46:10.627Z,18.16
2023-05-25T08:48:42.680Z,18.31
2023-05-25T08:51:17.705Z,18.28
2023-05-25T08:53:46.159Z,18.09
2023-05-25T08:56:20.734Z,18.17
2023-05-25T08:58:59.647Z,18.13
2023-05-25T09:01:32.084Z,18.20
2023-05-25T09:04:09.265Z,18.25
2023-05-25T09:06:40.704Z,18.32
2023-05-25T09:09:09.611Z,18.30
2023-05-25T09:11:41.629Z,18.34
2023-05-25T09:14:11.775Z,18.39
2023-05-25T09:16:40.744Z,18.42
2023-05-25T09:19:08.515Z,18.40
2023-05-25T09:21:36.369Z,18.32
2023-05-25T09:24:04.606Z,18.28
2023-05-25T09:26:33.056Z,18.28
2023-05-25T09:29:02.275Z,18.14
2023-05-25T09:31:31.790Z,18.03
2023-05-25T09:34:00.495Z,18.17
2023-05-25T09:36:28.565Z,17.98
2023-05-25T09:38:59.243Z,18.17
2023-05-25T09:41:29.405Z,18.15
2023-05-25T09:44:09.598Z,17.99
2023-05-25T09:46:40.399Z,18.20
2023-05-25T09:49:09.649Z,18.33
2023-05-25T09:51:37.227Z,18.51
2023-05-25T09:54:09.042Z,18.62
2023-05-25T09:56:36.895Z,18.59
2023-05-25T09:59:04.266Z,18.83
2023-05-25T10:01:33.715Z,19.19
2023-05-25T10:06:52.676Z,19.50
2023-05-25T10:09:21.208Z,19.65
2023-05-25T10:11:53.017Z,19.90
2023-05-25T10:14:29.512Z,19.88
2023-05-25T10:17:04.377Z,19.77
2023-05-25T10:19:43.327Z,20.17
2023-05-25T10:22:22.271Z,20.64
2023-05-25T10:24:58.822Z,20.50
2023-05-25T10:27:34.350Z,20.58
2023-05-25T10:30:03.121Z,20.94
2023-05-25T10:32:33.096Z,21.17
2023-05-25T10:35:02.165Z,20.90
2023-05-25T10:37:31.193Z,21.02
2023-05-25T10:40:01.628Z,20.93
2023-05-25T10:42:30.436Z,21.10
2023-05-25T10:47:26.714Z,21.89
2023-05-25T10:49:55.985Z,21.90
2023-05-25T10:52:31.717Z,21.61
2023-05-25T10:55:05.410Z,21.77
2023-05-25T10:57:33.187Z,21.74
2023-05-25T11:00:09.067Z,21.33
2023-05-25T11:02:57.913Z,21.14
2023-05-25T11:05:28.915Z,21.57
2023-05-25T11:08:11.631Z,21.55
2023-05-25T11:11:05.277Z,21.61
2023-05-25T11:13:37.876Z,21.65
2023-05-25T11:16:24.946Z,21.60
2023-05-25T11:18:55.989Z,21.77
2023-05-25T11:21:30.548Z,21.70
2023-05-25T11:24:02.836Z,21.97
2023-05-25T11:26:34.100Z,22.01
2023-05-25T11:29:12.517Z,21.94
2023-05-25T11:31:43.375Z,22.09
2023-05-25T11:34:12.167Z,22.14
2023-05-25T11:36:39.929Z,22.18
2023-05-25T11:39:16.964Z,21.90
2023-05-25T11:42:11.528Z,22.03
2023-05-25T11:44:39.282Z,21.91
2023-05-25T11:47:14.736Z,22.17
2023-05-25T11:49:44.338Z,22.31
2023-05-25T11:52:23.160Z,21.98
2023-05-25T11:54:50.677Z,21.97
2023-05-25T11:57:20.649Z,22.00
2023-05-25T11:59:50.409Z,22.19
2023-05-25T12:02:18.574Z,22.39
2023-05-25T12:04:55.388Z,22.61
2023-05-25T12:07:23.855Z,22.49
2023-05-25T12:09:53.755Z,22.28
2023-05-25T12:12:21.433Z,22.09
2023-05-25T12:14:52.309Z,22.06
2023-05-25T12:17:22.192Z,22.41
2023-05-25T12:19:50.117Z,23.00
2023-05-25T12:22:17.783Z,23.11
2023-05-25T12:24:45.632Z,23.06
2023-05-25T12:27:21.145Z,23.39
2023-05-25T12:29:49.528Z,23.69
2023-05-25T12:32:17.075Z,23.85
2023-05-25T12:34:44.551Z,23.72
2023-05-25T12:37:22.587Z,23.62
2023-05-25T12:39:50.878Z,23.31
2023-05-25T12:42:18.724Z,23.28
2023-05-25T12:44:46.908Z,23.46
2023-05-25T12:47:16.852Z,23.52
2023-05-25T12:49:47.296Z,23.61
2023-05-25T12:52:37.278Z,23.40
2023-05-25T12:55:30.372Z,23.19
2023-05-25T12:58:02.448Z,23.31
2023-05-25T13:00:37.246Z,23.02
2023-05-25T13:03:08.382Z,23.23
2023-05-25T13:05:38.360Z,23.47
2023-05-25T13:08:07.251Z,23.85
2023-05-25T13:10:35.777Z,23.95
2023-05-25T13:13:04.747Z,23.89
2023-05-25T13:15:32.065Z,23.95
2023-05-25T13:17:59.634Z,23.75
2023-05-25T13:20:30.807Z,24.05
2023-05-25T13:22:58.657Z,24.29
2023-05-25T13:25:28.073Z,24.59
2023-05-25T13:27:58.246Z,24.31
2023-05-25T13:30:26.591Z,24.11
2023-05-25T13:32:54.302Z,24.03
2023-05-25T13:35:40.573Z,23.97
2023-05-25T13:38:07.995Z,24.30
2023-05-25T13:40:35.654Z,24.55
2023-05-25T13:43:03.368Z,24.67
2023-05-25T13:45:30.876Z,25.03
2023-05-25T13:47:59.147Z,24.74
2023-05-25T13:50:26.788Z,24.52
2023-05-25T13:52:54.459Z,24.51
2023-05-25T13:55:23.175Z,24.68
2023-05-25T13:57:52.046Z,24.17
2023-05-25T14:00:20.438Z,24.27
2023-05-25T14:02:48.311Z,24.58
2023-05-25T14:05:15.854Z,24.42
2023-05-25T14:07:44.762Z,24.27
2023-05-25T14:10:12.464Z,24.27
2023-05-25T14:12:39.963Z,24.02
2023-05-25T14:15:08.277Z,24.26
2023-05-25T14:17:36.002Z,24.52
2023-05-25T14:20:04.509Z,24.90
2023-05-25T14:22:32.765Z,25.04
2023-05-25T14:25:00.480Z,24.91
2023-05-25T14:27:27.878Z,25.39
2023-05-25T14:29:55.218Z,25.32
2023-05-25T14:32:22.893Z,24.19
2023-05-25T14:34:50.295Z,23.27
2023-05-25T14:37:18.180Z,22.83
2023-05-25T14:39:45.900Z,22.63
2023-05-25T14:42:13.314Z,22.22
2023-05-25T14:44:40.862Z,22.34
2023-05-25T14:47:08.914Z,22.15
2023-05-25T14:49:36.324Z,21.64
2023-05-25T14:52:04.067Z,21.49
2023-05-25T14:54:31.744Z,20.86
2023-05-25T14:56:59.026Z,21.05
2023-05-25T14:59:26.445Z,21.02
2023-05-25T15:01:54.326Z,20.96
2023-05-25T15:04:22.001Z,21.20
2023-05-25T15:06:49.461Z,21.18
2023-05-25T15:09:19.507Z,21.31
2023-05-25T15:11:46.906Z,21.26
2023-05-25T15:14:14.380Z,21.30
2023-05-25T15:16:42.768Z,21.22
2023-05-25T15:19:12.697Z,21.04
2023-05-25T15:21:41.658Z,20.91
2023-05-25T15:24:09.206Z,20.72
2023-05-25T15:26:36.576Z,20.75
2023-05-25T15:29:04.304Z,20.68
2023-05-25T15:31:31.813Z,20.48
2023-05-25T15:34:00.872Z,20.51
2023-05-25T15:36:28.900Z,20.63
2023-05-25T15:38:56.532Z,20.65
2023-05-25T15:41:24.036Z,20.92
2023-05-25T15:43:54.798Z,20.80
2023-05-25T15:46:22.341Z,20.89
2023-05-25T15:48:49.880Z,20.75
2023-05-25T15:51:17.573Z,20.75
2023-05-25T15:53:44.951Z,20.82
2023-05-25T15:56:12.377Z,21.01
2023-05-25T15:58:40.064Z,21.28
2023-05-25T16:01:07.544Z,21.35
2023-05-25T16:03:35.320Z,21.79
2023-05-25T16:06:02.944Z,21.57
2023-05-25T16:08:30.315Z,21.57
2023-05-25T16:10:58.081Z,21.66
2023-05-25T16:13:25.441Z,21.25
2023-05-25T16:15:52.935Z,21.27
2023-05-25T16:18:20.853Z,21.29
2023-05-25T16:20:49.317Z,21.13
2023-05-25T16:23:17.073Z,20.97
2023-05-25T16:25:44.861Z,20.88
2023-05-25T16:28:12.326Z,20.73
2023-05-25T16:30:39.665Z,20.54
2023-05-25T16:33:07.486Z,20.25
2023-05-25T16:35:34.894Z,20.34
2023-05-25T16:38:02.455Z,20.13
2023-05-25T16:40:31.692Z,20.18
2023-05-25T16:42:59.249Z,20.07
2023-05-25T16:45:26.735Z,20.06
2023-05-25T16:47:54.581Z,19.88
2023-05-25T16:50:21.997Z,19.94
2023-05-25T16:52:49.692Z,20.07
2023-05-25T16:55:17.899Z,19.93
2023-05-25T16:57:45.387Z,19.95
2023-05-25T17:00:13.448Z,20.01
2023-05-25T17:02:41.257Z,19.91
2023-05-25T17:05:09.567Z,19.95
2023-05-25T17:07:38.001Z,19.88
2023-05-25T17:10:15.748Z,19.70
2023-05-25T17:12:43.850Z,19.42
2023-05-25T17:15:13.932Z,19.25
2023-05-25T17:17:41.489Z,19.29
2023-05-25T17:20:09.379Z,19.34
2023-05-25T17:22:38.017Z,19.25
2023-05-25T17:25:11.610Z,19.29
2023-05-25T17:27:39.275Z,19.27
2023-05-25T17:30:07.269Z,19.06
2023-05-25T17:32:34.666Z,19.05
2023-05-25T17:35:02.483Z,19.04
2023-05-25T17:37:30.095Z,18.96
2023-05-25T17:39:57.637Z,18.71
2023-05-25T17:42:25.471Z,18.64
2023-05-25T17:44:53.433Z,18.62
2023-05-25T17:47:21.085Z,18.41
2023-05-25T17:49:49.319Z,18.12
2023-05-25T17:52:16.650Z,17.92
2023-05-25T17:54:51.306Z,17.85
2023-05-25T17:57:19.003Z,17.93
2023-05-25T17:59:46.461Z,17.94
2023-05-25T18:02:13.952Z,17.98
2023-05-25T18:04:41.857Z,17.98
2023-05-25T18:07:09.281Z,18.07
2023-05-25T18:09:36.753Z,18.00
2023-05-25T18:12:04.590Z,17.97
2023-05-25T18:14:35.465Z,17.93
2023-05-25T18:17:03.002Z,17.91
2023-05-25T18:19:31.081Z,17.70
2023-05-25T18:21:58.509Z,17.73
2023-05-25T18:24:25.985Z,17.79
2023-05-25T18:26:53.944Z,17.92
2023-05-25T18:29:21.345Z,17.98
2023-05-25T18:31:49.037Z,17.79
2023-05-25T18:34:17.050Z,17.58
2023-05-25T18:36:44.510Z,17.34
2023-05-25T18:39:12.377Z,17.22
2023-05-25T18:41:40.305Z,17.27
2023-05-25T18:44:08.302Z,17.28
2023-05-25T18:46:38.320Z,17.37
2023-05-25T18:49:06.194Z,17.41
2023-05-25T18:51:34.159Z,17.39
2023-05-25T18:54:01.595Z,17.21
2023-05-25T18:56:29.411Z,17.27
2023-05-25T18:58:57.407Z,17.22
2023-05-25T19:01:25.798Z,17.16
2023-05-25T19:03:55.403Z,17.33
2023-05-25T19:06:24.262Z,17.29
2023-05-25T19:08:51.670Z,17.14
2023-05-25T19:11:20.294Z,17.11
2023-05-25T19:13:47.741Z,17.13
2023-05-25T19:18:43.131Z,17.28
2023-05-25T19:21:10.551Z,17.10
2023-05-25T19:23:38.054Z,17.01
2023-05-25T19:26:05.917Z,16.54
2023-05-25T19:28:33.377Z,16.32
2023-05-25T19:31:01.239Z,16.66
2023-05-25T19:33:29.041Z,16.57
2023-05-25T19:35:56.430Z,16.52
2023-05-25T19:38:26.564Z,16.36
2023-05-25T19:40:56.759Z,16.25
2023-05-25T19:43:24.250Z,16.30
2023-05-25T19:45:51.653Z,16.16
2023-05-25T19:48:20.491Z,16.17
2023-05-25T19:50:47.955Z,16.08
2023-05-25T19:53:15.343Z,16.00
2023-05-25T19:55:43.240Z,15.67
2023-05-25T19:58:11.312Z,16.12
2023-05-25T20:00:38.668Z,15.96
2023-05-25T20:03:06.650Z,15.92
2023-05-25T20:05:34.232Z,15.61
2023-05-25T20:08:01.627Z,15.72
2023-05-25T20:10:29.777Z,15.64
2023-05-25T20:12:57.161Z,15.59
2023-05-25T20:15:24.540Z,15.64
2023-05-25T20:17:52.391Z,15.66
2023-05-25T20:20:19.918Z,15.55
2023-05-25T20:22:47.414Z,15.31
2023-05-25T20:25:15.170Z,15.23
2023-05-25T20:27:42.662Z,15.18
2023-05-25T20:30:10.913Z,15.23
2023-05-25T20:32:38.803Z,15.07
2023-05-25T20:35:07.180Z,14.79
2023-05-25T20:37:34.527Z,14.95
2023-05-25T20:40:02.483Z,15.02
2023-05-25T20:42:29.897Z,14.97
2023-05-25T20:44:57.361Z,15.23
2023-05-25T20:47:25.138Z,14.81
2023-05-25T20:49:52.584Z,14.91
2023-05-25T20:52:21.315Z,14.93
2023-05-25T20:54:48.960Z,14.88
2023-05-25T20:57:16.483Z,14.90
2023-05-25T20:59:43.966Z,14.90
2023-05-25T21:02:11.775Z,15.13
2023-05-25T21:04:39.112Z,15.37
2023-05-25T21:07:06.629Z,15.13
2023-05-25T21:09:34.275Z,15.28
2023-05-25T21:12:03.576Z,15.41
2023-05-25T21:14:31.080Z,14.70
2023-05-25T21:16:58.710Z,14.96
2023-05-25T21:19:26.080Z,15.09
2023-05-25T21:21:53.738Z,15.15
2023-05-25T21:24:21.611Z,15.13
2023-05-25T21:26:48.874Z,15.08
2023-05-25T21:29:16.146Z,15.32
2023-05-25T21:31:43.976Z,15.21
2023-05-25T21:34:11.490Z,15.10
2023-05-25T21:36:38.935Z,15.04
2023-05-25T21:39:06.674Z,14.99
2023-05-25T21:41:34.132Z,15.17
2023-05-25T21:44:01.615Z,15.21
2023-05-25T21:46:29.465Z,15.27
2023-05-25T21:48:57.206Z,15.26
2023-05-25T21:51:24.670Z,15.13
2023-05-25T21:53:52.255Z,15.09
2023-05-25T21:56:19.619Z,14.94
2023-05-25T21:58:47.094Z,14.89
2023-05-25T22:01:14.817Z,14.98
2023-05-25T22:03:42.845Z,14.92
2023-05-25T22:06:10.506Z,14.98
2023-05-25T22:08:37.830Z,15.05
2023-05-25T22:11:05.571Z,15.17
2023-05-25T22:13:33.201Z,15.05
2023-05-25T22:16:00.760Z,15.05
2023-05-25T22:18:28.430Z,14.93
2023-05-25T22:20:55.844Z,14.79
2023-05-25T22:23:23.275Z,14.73
2023-05-25T22:25:50.879Z,14.92
2023-05-25T22:28:18.270Z,15.02
2023-05-25T22:30:45.761Z,14.91
2023-05-25T22:33:13.475Z,14.73
2023-05-25T22:35:40.866Z,14.60
2023-05-25T22:38:08.267Z,14.79
2023-05-25T22:40:35.950Z,14.89
2023-05-25T22:43:03.280Z,14.81
2023-05-25T22:45:30.704Z,14.54
2023-05-25T22:47:58.463Z,14.36
2023-05-25T22:50:25.877Z,14.30
2023-05-25T22:52:53.224Z,14.11
2023-05-25T22:55:21.748Z,14.04
2023-05-25T22:57:49.082Z,14.24
2023-05-25T23:00:16.546Z,14.19
2023-05-25T23:02:44.364Z,14.15
2023-05-25T23:05:11.727Z,14.17
2023-05-25T23:07:39.176Z,14.26
2023-05-25T23:10:08.383Z,14.25
2023-05-25T23:12:35.799Z,14.35
2023-05-25T23:15:04.265Z,14.27
2023-05-25T23:17:32.860Z,14.03
2023-05-25T23:20:00.366Z,13.69
2023-05-25T23:22:28.182Z,13.97
2023-05-25T23:24:56.059Z,13.99
2023-05-25T23:27:23.414Z,14.11
2023-05-25T23:29:50.789Z,14.29
2023-05-25T23:32:18.398Z,13.90
2023-05-25T23:34:45.800Z,14.09
2023-05-25T23:37:13.151Z,14.06
2023-05-25T23:39:40.776Z,14.08
2023-05-25T23:42:08.345Z,13.86
2023-05-25T23:44:35.739Z,13.91
2023-05-25T23:47:03.616Z,14.08
2023-05-25T23:49:31.412Z,14.09
2023-05-25T23:51:58.738Z,13.60
2023-05-25T23:54:26.379Z,13.54
2023-05-25T23:56:53.919Z,14.02
2023-05-25T23:59:21.272Z,13.92
